sensor_id;sensor_type;location;lat;lon;timestamp;P1;durP1;ratioP1;P2;durP2;ratioP2
30173;SDS011;16985;50.814;8.530;2022-12-11T00:00:48;31.65;;;18.83;;
30173;SDS011;16985;50.814;8.530;2022-12-11T00:03:15;32.97;;;19.23;;
30173;SDS011;16985;50.814;8.530;2022-12-11T00:05:42;34.40;;;18.80;;
30173;SDS011;16985;50.814;8.530;2022-12-11T00:08:09;33.10;;;19.17;;
30173;SDS011;16985;50.814;8.530;2022-12-11T00:10:36;33.42;;;18.13;;
30173;SDS011;16985;50.814;8.530;2022-12-11T00:13:11;33.55;;;19.48;;
30173;SDS011;16985;50.814;8.530;2022-12-11T00:15:40;30.67;;;18.08;;
30173;SDS011;16985;50.814;8.530;2022-12-11T00:18:06;30.95;;;17.52;;
30173;SDS011;16985;50.814;8.530;2022-12-11T00:20:37;30.48;;;16.55;;
30173;SDS011;16985;50.814;8.530;2022-12-11T00:23:03;30.73;;;16.90;;
30173;SDS011;16985;50.814;8.530;2022-12-11T00:25:29;33.08;;;18.42;;
30173;SDS011;16985;50.814;8.530;2022-12-11T00:27:55;28.50;;;16.73;;
30173;SDS011;16985;50.814;8.530;2022-12-11T00:30:21;26.73;;;16.10;;
30173;SDS011;16985;50.814;8.530;2022-12-11T00:32:46;31.60;;;17.85;;
30173;SDS011;16985;50.814;8.530;2022-12-11T00:35:12;31.20;;;17.52;;
30173;SDS011;16985;50.814;8.530;2022-12-11T00:37:38;31.85;;;16.63;;
30173;SDS011;16985;50.814;8.530;2022-12-11T00:40:04;31.60;;;16.63;;
30173;SDS011;16985;50.814;8.530;2022-12-11T00:42:31;31.25;;;17.05;;
30173;SDS011;16985;50.814;8.530;2022-12-11T00:44:56;28.48;;;15.70;;
30173;SDS011;16985;50.814;8.530;2022-12-11T00:47:22;28.60;;;16.40;;
30173;SDS011;16985;50.814;8.530;2022-12-11T00:49:48;27.05;;;15.38;;
30173;SDS011;16985;50.814;8.530;2022-12-11T00:52:15;32.13;;;18.02;;
30173;SDS011;16985;50.814;8.530;2022-12-11T00:54:41;28.15;;;16.02;;
30173;SDS011;16985;50.814;8.530;2022-12-11T00:57:07;31.42;;;16.80;;
30173;SDS011;16985;50.814;8.530;2022-12-11T00:59:33;30.95;;;17.80;;
30173;SDS011;16985;50.814;8.530;2022-12-11T01:01:59;29.92;;;16.42;;
30173;SDS011;16985;50.814;8.530;2022-12-11T01:04:25;27.45;;;16.90;;
30173;SDS011;16985;50.814;8.530;2022-12-11T01:06:51;29.50;;;16.08;;
30173;SDS011;16985;50.814;8.530;2022-12-11T01:09:17;29.13;;;18.00;;
30173;SDS011;16985;50.814;8.530;2022-12-11T01:12:02;30.15;;;17.95;;
30173;SDS011;16985;50.814;8.530;2022-12-11T01:14:28;32.95;;;17.20;;
30173;SDS011;16985;50.814;8.530;2022-12-11T01:16:53;34.10;;;18.20;;
30173;SDS011;16985;50.814;8.530;2022-12-11T01:19:20;29.98;;;16.58;;
30173;SDS011;16985;50.814;8.530;2022-12-11T01:21:46;28.65;;;17.30;;
30173;SDS011;16985;50.814;8.530;2022-12-11T01:24:12;32.80;;;17.80;;
30173;SDS011;16985;50.814;8.530;2022-12-11T01:26:38;28.17;;;16.35;;
30173;SDS011;16985;50.814;8.530;2022-12-11T01:29:03;30.48;;;15.98;;
30173;SDS011;16985;50.814;8.530;2022-12-11T01:31:29;27.10;;;15.82;;
30173;SDS011;16985;50.814;8.530;2022-12-11T01:33:55;30.55;;;16.98;;
30173;SDS011;16985;50.814;8.530;2022-12-11T01:36:22;26.08;;;14.85;;
30173;SDS011;16985;50.814;8.530;2022-12-11T01:38:48;26.63;;;15.52;;
30173;SDS011;16985;50.814;8.530;2022-12-11T01:41:15;29.60;;;17.17;;
30173;SDS011;16985;50.814;8.530;2022-12-11T01:48:58;23.83;;;13.23;;
30173;SDS011;16985;50.814;8.530;2022-12-11T01:51:29;29.20;;;15.63;;
30173;SDS011;16985;50.814;8.530;2022-12-11T01:53:59;28.70;;;15.55;;
30173;SDS011;16985;50.814;8.530;2022-12-11T01:56:31;29.70;;;16.90;;
30173;SDS011;16985;50.814;8.530;2022-12-11T01:59:01;28.95;;;15.98;;
30173;SDS011;16985;50.814;8.530;2022-12-11T02:01:39;30.65;;;15.90;;
30173;SDS011;16985;50.814;8.530;2022-12-11T02:04:13;28.77;;;15.80;;
30173;SDS011;16985;50.814;8.530;2022-12-11T02:06:41;33.92;;;17.58;;
30173;SDS011;16985;50.814;8.530;2022-12-11T02:09:11;29.70;;;16.05;;
30173;SDS011;16985;50.814;8.530;2022-12-11T02:25:49;30.10;;;16.20;;
30173;SDS011;16985;50.814;8.530;2022-12-11T02:28:40;32.53;;;16.75;;
30173;SDS011;16985;50.814;8.530;2022-12-11T02:31:21;28.20;;;16.38;;
30173;SDS011;16985;50.814;8.530;2022-12-11T02:34:29;29.05;;;17.60;;
30173;SDS011;16985;50.814;8.530;2022-12-11T02:36:57;30.83;;;17.17;;
30173;SDS011;16985;50.814;8.530;2022-12-11T02:39:37;30.15;;;16.52;;
30173;SDS011;16985;50.814;8.530;2022-12-11T02:42:04;30.45;;;17.15;;
30173;SDS011;16985;50.814;8.530;2022-12-11T02:44:32;28.85;;;17.23;;
30173;SDS011;16985;50.814;8.530;2022-12-11T02:46:59;30.35;;;17.02;;
30173;SDS011;16985;50.814;8.530;2022-12-11T02:49:27;33.65;;;18.33;;
30173;SDS011;16985;50.814;8.530;2022-12-11T02:51:55;31.15;;;16.98;;
30173;SDS011;16985;50.814;8.530;2022-12-11T02:54:27;32.72;;;16.52;;
30173;SDS011;16985;50.814;8.530;2022-12-11T02:56:59;35.00;;;16.73;;
30173;SDS011;16985;50.814;8.530;2022-12-11T02:59:36;28.08;;;16.73;;
30173;SDS011;16985;50.814;8.530;2022-12-11T03:02:05;30.63;;;16.35;;
30173;SDS011;16985;50.814;8.530;2022-12-11T03:04:33;30.88;;;17.70;;
30173;SDS011;16985;50.814;8.530;2022-12-11T03:07:07;29.75;;;16.23;;
30173;SDS011;16985;50.814;8.530;2022-12-11T03:09:42;30.65;;;17.20;;
30173;SDS011;16985;50.814;8.530;2022-12-11T03:12:11;30.15;;;17.17;;
30173;SDS011;16985;50.814;8.530;2022-12-11T03:14:41;27.85;;;16.27;;
30173;SDS011;16985;50.814;8.530;2022-12-11T03:17:18;28.63;;;16.58;;
30173;SDS011;16985;50.814;8.530;2022-12-11T03:19:54;30.25;;;16.85;;
30173;SDS011;16985;50.814;8.530;2022-12-11T03:22:54;33.60;;;17.13;;
30173;SDS011;16985;50.814;8.530;2022-12-11T03:26:03;33.30;;;18.50;;
30173;SDS011;16985;50.814;8.530;2022-12-11T03:28:41;29.52;;;15.98;;
30173;SDS011;16985;50.814;8.530;2022-12-11T03:31:16;31.85;;;16.85;;
30173;SDS011;16985;50.814;8.530;2022-12-11T03:33:56;29.58;;;17.02;;
30173;SDS011;16985;50.814;8.530;2022-12-11T03:36:27;29.90;;;15.52;;
30173;SDS011;16985;50.814;8.530;2022-12-11T03:39:01;27.25;;;16.10;;
30173;SDS011;16985;50.814;8.530;2022-12-11T03:41:33;28.35;;;17.02;;
30173;SDS011;16985;50.814;8.530;2022-12-11T03:44:01;31.38;;;17.42;;
30173;SDS011;16985;50.814;8.530;2022-12-11T03:46:31;29.45;;;16.45;;
30173;SDS011;16985;50.814;8.530;2022-12-11T03:49:04;29.38;;;16.20;;
30173;SDS011;16985;50.814;8.530;2022-12-11T03:51:39;33.25;;;18.50;;
30173;SDS011;16985;50.814;8.530;2022-12-11T03:54:07;30.00;;;16.55;;
30173;SDS011;16985;50.814;8.530;2022-12-11T03:56:34;28.50;;;16.42;;
30173;SDS011;16985;50.814;8.530;2022-12-11T03:59:02;30.00;;;16.33;;
30173;SDS011;16985;50.814;8.530;2022-12-11T04:01:28;30.42;;;16.05;;
30173;SDS011;16985;50.814;8.530;2022-12-11T04:03:54;27.45;;;15.48;;
30173;SDS011;16985;50.814;8.530;2022-12-11T04:06:20;26.90;;;14.60;;
30173;SDS011;16985;50.814;8.530;2022-12-11T04:08:46;31.23;;;16.90;;
30173;SDS011;16985;50.814;8.530;2022-12-11T04:11:11;29.58;;;15.63;;
30173;SDS011;16985;50.814;8.530;2022-12-11T04:13:56;30.90;;;17.30;;
30173;SDS011;16985;50.814;8.530;2022-12-11T04:16:40;27.95;;;16.00;;
30173;SDS011;16985;50.814;8.530;2022-12-11T04:19:07;29.98;;;15.80;;
30173;SDS011;16985;50.814;8.530;2022-12-11T04:21:52;25.60;;;15.10;;
30173;SDS011;16985;50.814;8.530;2022-12-11T04:24:36;27.42;;;15.32;;
30173;SDS011;16985;50.814;8.530;2022-12-11T04:27:02;28.58;;;16.80;;
30173;SDS011;16985;50.814;8.530;2022-12-11T04:29:28;28.00;;;15.93;;
30173;SDS011;16985;50.814;8.530;2022-12-11T04:31:54;28.98;;;16.60;;
30173;SDS011;16985;50.814;8.530;2022-12-11T04:34:20;29.88;;;17.05;;
30173;SDS011;16985;50.814;8.530;2022-12-11T04:36:46;28.35;;;14.98;;
30173;SDS011;16985;50.814;8.530;2022-12-11T04:39:11;30.10;;;16.13;;
30173;SDS011;16985;50.814;8.530;2022-12-11T04:41:37;29.35;;;15.40;;
30173;SDS011;16985;50.814;8.530;2022-12-11T04:44:03;27.05;;;15.70;;
30173;SDS011;16985;50.814;8.530;2022-12-11T04:46:29;28.13;;;15.43;;
30173;SDS011;16985;50.814;8.530;2022-12-11T04:48:55;25.77;;;14.75;;
30173;SDS011;16985;50.814;8.530;2022-12-11T04:51:21;28.90;;;16.05;;
30173;SDS011;16985;50.814;8.530;2022-12-11T04:53:47;27.88;;;15.95;;
30173;SDS011;16985;50.814;8.530;2022-12-11T04:56:14;30.05;;;17.92;;
30173;SDS011;16985;50.814;8.530;2022-12-11T04:58:41;31.00;;;16.30;;
30173;SDS011;16985;50.814;8.530;2022-12-11T05:01:08;32.22;;;16.15;;
30173;SDS011;16985;50.814;8.530;2022-12-11T05:03:36;28.80;;;16.20;;
30173;SDS011;16985;50.814;8.530;2022-12-11T05:06:03;27.35;;;16.23;;
30173;SDS011;16985;50.814;8.530;2022-12-11T05:08:29;33.67;;;17.70;;
30173;SDS011;16985;50.814;8.530;2022-12-11T05:10:58;31.30;;;17.13;;
30173;SDS011;16985;50.814;8.530;2022-12-11T05:13:26;26.73;;;15.35;;
30173;SDS011;16985;50.814;8.530;2022-12-11T05:15:53;28.98;;;16.50;;
30173;SDS011;16985;50.814;8.530;2022-12-11T05:18:19;33.17;;;16.75;;
30173;SDS011;16985;50.814;8.530;2022-12-11T05:20:53;28.23;;;15.65;;
30173;SDS011;16985;50.814;8.530;2022-12-11T05:23:21;28.00;;;16.38;;
30173;SDS011;16985;50.814;8.530;2022-12-11T05:25:53;27.80;;;16.63;;
30173;SDS011;16985;50.814;8.530;2022-12-11T05:28:24;26.20;;;15.20;;
30173;SDS011;16985;50.814;8.530;2022-12-11T05:33:28;32.13;;;16.33;;
30173;SDS011;16985;50.814;8.530;2022-12-11T05:35:55;30.30;;;17.30;;
30173;SDS011;16985;50.814;8.530;2022-12-11T05:38:21;28.52;;;16.08;;
30173;SDS011;16985;50.814;8.530;2022-12-11T05:40:56;33.05;;;17.63;;
30173;SDS011;16985;50.814;8.530;2022-12-11T05:43:28;28.30;;;16.35;;
30173;SDS011;16985;50.814;8.530;2022-12-11T05:46:07;27.65;;;16.23;;
30173;SDS011;16985;50.814;8.530;2022-12-11T05:48:38;30.15;;;18.08;;
30173;SDS011;16985;50.814;8.530;2022-12-11T05:51:05;32.80;;;18.58;;
30173;SDS011;16985;50.814;8.530;2022-12-11T05:53:32;32.42;;;16.52;;
30173;SDS011;16985;50.814;8.530;2022-12-11T05:56:02;32.83;;;17.67;;
30173;SDS011;16985;50.814;8.530;2022-12-11T05:58:33;30.25;;;16.73;;
30173;SDS011;16985;50.814;8.530;2022-12-11T06:00:59;35.88;;;16.45;;
30173;SDS011;16985;50.814;8.530;2022-12-11T06:03:26;31.20;;;16.27;;
30173;SDS011;16985;50.814;8.530;2022-12-11T06:05:52;28.58;;;16.83;;
30173;SDS011;16985;50.814;8.530;2022-12-11T06:08:18;29.33;;;16.70;;
30173;SDS011;16985;50.814;8.530;2022-12-11T06:10:45;27.75;;;16.10;;
30173;SDS011;16985;50.814;8.530;2022-12-11T06:13:14;31.35;;;17.38;;
30173;SDS011;16985;50.814;8.530;2022-12-11T06:15:41;29.38;;;16.70;;
30173;SDS011;16985;50.814;8.530;2022-12-11T06:18:07;29.08;;;16.70;;
30173;SDS011;16985;50.814;8.530;2022-12-11T06:20:33;29.02;;;16.55;;
30173;SDS011;16985;50.814;8.530;2022-12-11T06:23:00;27.17;;;16.40;;
30173;SDS011;16985;50.814;8.530;2022-12-11T06:25:27;36.08;;;19.23;;
30173;SDS011;16985;50.814;8.530;2022-12-11T06:27:53;28.15;;;15.60;;
30173;SDS011;16985;50.814;8.530;2022-12-11T06:30:19;32.65;;;16.50;;
30173;SDS011;16985;50.814;8.530;2022-12-11T06:32:46;28.55;;;15.60;;
30173;SDS011;16985;50.814;8.530;2022-12-11T06:35:11;34.10;;;17.75;;
30173;SDS011;16985;50.814;8.530;2022-12-11T06:37:37;32.72;;;18.40;;
30173;SDS011;16985;50.814;8.530;2022-12-11T06:40:05;31.92;;;17.05;;
30173;SDS011;16985;50.814;8.530;2022-12-11T06:42:33;26.98;;;15.93;;
30173;SDS011;16985;50.814;8.530;2022-12-11T06:44:59;26.52;;;16.00;;
30173;SDS011;16985;50.814;8.530;2022-12-11T06:47:26;28.48;;;15.80;;
30173;SDS011;16985;50.814;8.530;2022-12-11T06:49:56;32.83;;;17.20;;
30173;SDS011;16985;50.814;8.530;2022-12-11T06:52:22;28.13;;;16.75;;
30173;SDS011;16985;50.814;8.530;2022-12-11T06:54:51;29.40;;;17.08;;
30173;SDS011;16985;50.814;8.530;2022-12-11T06:57:17;37.88;;;18.77;;
30173;SDS011;16985;50.814;8.530;2022-12-11T06:59:43;31.10;;;16.98;;
30173;SDS011;16985;50.814;8.530;2022-12-11T07:02:16;28.02;;;16.17;;
30173;SDS011;16985;50.814;8.530;2022-12-11T07:04:43;32.35;;;17.17;;
30173;SDS011;16985;50.814;8.530;2022-12-11T07:07:09;29.83;;;16.80;;
30173;SDS011;16985;50.814;8.530;2022-12-11T07:09:36;30.65;;;17.60;;
30173;SDS011;16985;50.814;8.530;2022-12-11T07:12:04;30.52;;;16.63;;
30173;SDS011;16985;50.814;8.530;2022-12-11T07:14:31;29.48;;;17.20;;
30173;SDS011;16985;50.814;8.530;2022-12-11T07:16:58;30.83;;;17.23;;
30173;SDS011;16985;50.814;8.530;2022-12-11T07:19:24;32.67;;;17.15;;
30173;SDS011;16985;50.814;8.530;2022-12-11T07:21:50;28.70;;;16.45;;
30173;SDS011;16985;50.814;8.530;2022-12-11T07:24:16;29.73;;;16.92;;
30173;SDS011;16985;50.814;8.530;2022-12-11T07:26:42;31.70;;;17.20;;
30173;SDS011;16985;50.814;8.530;2022-12-11T07:29:08;33.17;;;17.67;;
30173;SDS011;16985;50.814;8.530;2022-12-11T07:31:34;33.65;;;17.23;;
30173;SDS011;16985;50.814;8.530;2022-12-11T07:34:01;29.08;;;17.38;;
30173;SDS011;16985;50.814;8.530;2022-12-11T07:36:30;29.13;;;17.73;;
30173;SDS011;16985;50.814;8.530;2022-12-11T07:38:57;28.98;;;17.85;;
30173;SDS011;16985;50.814;8.530;2022-12-11T07:41:24;29.50;;;17.73;;
30173;SDS011;16985;50.814;8.530;2022-12-11T07:43:52;31.13;;;17.45;;
30173;SDS011;16985;50.814;8.530;2022-12-11T07:46:20;31.85;;;17.02;;
30173;SDS011;16985;50.814;8.530;2022-12-11T07:48:50;30.58;;;16.75;;
30173;SDS011;16985;50.814;8.530;2022-12-11T07:51:17;28.50;;;15.70;;
30173;SDS011;16985;50.814;8.530;2022-12-11T07:53:52;31.98;;;16.80;;
30173;SDS011;16985;50.814;8.530;2022-12-11T07:56:19;31.00;;;16.05;;
30173;SDS011;16985;50.814;8.530;2022-12-11T07:58:46;30.38;;;16.73;;
30173;SDS011;16985;50.814;8.530;2022-12-11T08:01:13;32.53;;;16.35;;
30173;SDS011;16985;50.814;8.530;2022-12-11T08:03:50;36.33;;;19.25;;
30173;SDS011;16985;50.814;8.530;2022-12-11T08:06:17;28.60;;;16.35;;
30173;SDS011;16985;50.814;8.530;2022-12-11T08:08:46;34.63;;;18.33;;
30173;SDS011;16985;50.814;8.530;2022-12-11T08:11:12;33.58;;;18.05;;
30173;SDS011;16985;50.814;8.530;2022-12-11T08:13:39;30.05;;;18.63;;
30173;SDS011;16985;50.814;8.530;2022-12-11T08:16:08;30.73;;;17.27;;
30173;SDS011;16985;50.814;8.530;2022-12-11T08:18:37;32.95;;;17.55;;
30173;SDS011;16985;50.814;8.530;2022-12-11T08:21:10;35.42;;;18.58;;
30173;SDS011;16985;50.814;8.530;2022-12-11T08:23:42;36.25;;;18.23;;
30173;SDS011;16985;50.814;8.530;2022-12-11T08:26:10;32.53;;;17.75;;
30173;SDS011;16985;50.814;8.530;2022-12-11T08:28:40;31.85;;;17.88;;
30173;SDS011;16985;50.814;8.530;2022-12-11T08:31:07;30.27;;;17.30;;
30173;SDS011;16985;50.814;8.530;2022-12-11T08:33:34;28.20;;;16.73;;
30173;SDS011;16985;50.814;8.530;2022-12-11T08:36:03;32.38;;;17.65;;
30173;SDS011;16985;50.814;8.530;2022-12-11T08:38:31;35.15;;;17.50;;
30173;SDS011;16985;50.814;8.530;2022-12-11T08:40:58;35.22;;;17.88;;
30173;SDS011;16985;50.814;8.530;2022-12-11T08:43:24;32.28;;;17.17;;
30173;SDS011;16985;50.814;8.530;2022-12-11T08:45:49;36.63;;;17.67;;
30173;SDS011;16985;50.814;8.530;2022-12-11T08:48:15;38.15;;;19.02;;
30173;SDS011;16985;50.814;8.530;2022-12-11T08:50:41;35.65;;;18.33;;
30173;SDS011;16985;50.814;8.530;2022-12-11T08:53:07;35.17;;;18.48;;
30173;SDS011;16985;50.814;8.530;2022-12-11T08:55:33;31.58;;;17.92;;
30173;SDS011;16985;50.814;8.530;2022-12-11T08:57:59;31.58;;;18.17;;
30173;SDS011;16985;50.814;8.530;2022-12-11T09:00:26;29.52;;;18.05;;
30173;SDS011;16985;50.814;8.530;2022-12-11T09:02:52;36.05;;;19.13;;
30173;SDS011;16985;50.814;8.530;2022-12-11T09:05:19;31.52;;;18.05;;
30173;SDS011;16985;50.814;8.530;2022-12-11T09:07:46;35.58;;;19.40;;
30173;SDS011;16985;50.814;8.530;2022-12-11T09:10:11;36.35;;;19.75;;
30173;SDS011;16985;50.814;8.530;2022-12-11T09:12:37;36.35;;;20.60;;
30173;SDS011;16985;50.814;8.530;2022-12-11T09:15:03;37.83;;;19.50;;
30173;SDS011;16985;50.814;8.530;2022-12-11T09:17:30;39.13;;;21.40;;
30173;SDS011;16985;50.814;8.530;2022-12-11T09:19:57;35.45;;;19.23;;
30173;SDS011;16985;50.814;8.530;2022-12-11T09:22:23;37.22;;;19.15;;
30173;SDS011;16985;50.814;8.530;2022-12-11T09:24:49;44.15;;;21.98;;
30173;SDS011;16985;50.814;8.530;2022-12-11T09:27:14;39.78;;;21.00;;
30173;SDS011;16985;50.814;8.530;2022-12-11T09:29:41;42.03;;;21.65;;
30173;SDS011;16985;50.814;8.530;2022-12-11T09:32:07;37.47;;;19.17;;
30173;SDS011;16985;50.814;8.530;2022-12-11T09:34:32;36.42;;;19.48;;
30173;SDS011;16985;50.814;8.530;2022-12-11T09:36:58;38.92;;;20.15;;
30173;SDS011;16985;50.814;8.530;2022-12-11T09:39:24;32.72;;;19.23;;
30173;SDS011;16985;50.814;8.530;2022-12-11T09:44:37;33.78;;;18.90;;
30173;SDS011;16985;50.814;8.530;2022-12-11T09:50:03;39.63;;;19.10;;
30173;SDS011;16985;50.814;8.530;2022-12-11T09:52:35;36.00;;;19.63;;
30173;SDS011;16985;50.814;8.530;2022-12-11T09:55:33;37.58;;;19.67;;
30173;SDS011;16985;50.814;8.530;2022-12-11T10:02:08;36.03;;;18.73;;
30173;SDS011;16985;50.814;8.530;2022-12-11T10:04:40;36.75;;;19.17;;
30173;SDS011;16985;50.814;8.530;2022-12-11T10:10:33;40.60;;;21.08;;
30173;SDS011;16985;50.814;8.530;2022-12-11T10:14:10;35.88;;;17.85;;
30173;SDS011;16985;50.814;8.530;2022-12-11T10:16:44;39.40;;;18.58;;
30173;SDS011;16985;50.814;8.530;2022-12-11T10:19:20;35.47;;;17.70;;
30173;SDS011;16985;50.814;8.530;2022-12-11T10:21:56;41.10;;;18.50;;
30173;SDS011;16985;50.814;8.530;2022-12-11T10:24:36;42.30;;;20.23;;
30173;SDS011;16985;50.814;8.530;2022-12-11T10:27:18;40.17;;;17.90;;
30173;SDS011;16985;50.814;8.530;2022-12-11T10:29:48;43.53;;;20.27;;
30173;SDS011;16985;50.814;8.530;2022-12-11T10:32:28;35.80;;;18.38;;
30173;SDS011;16985;50.814;8.530;2022-12-11T10:35:19;36.55;;;20.58;;
30173;SDS011;16985;50.814;8.530;2022-12-11T10:37:57;42.38;;;20.80;;
30173;SDS011;16985;50.814;8.530;2022-12-11T10:40:37;41.67;;;21.38;;
30173;SDS011;16985;50.814;8.530;2022-12-11T10:43:07;45.17;;;19.90;;
30173;SDS011;16985;50.814;8.530;2022-12-11T10:45:33;47.05;;;20.25;;
30173;SDS011;16985;50.814;8.530;2022-12-11T10:48:09;42.97;;;19.75;;
30173;SDS011;16985;50.814;8.530;2022-12-11T10:50:35;40.05;;;20.02;;
30173;SDS011;16985;50.814;8.530;2022-12-11T10:53:02;45.10;;;20.70;;
30173;SDS011;16985;50.814;8.530;2022-12-11T10:55:30;41.80;;;20.30;;
30173;SDS011;16985;50.814;8.530;2022-12-11T10:58:15;41.05;;;18.70;;
30173;SDS011;16985;50.814;8.530;2022-12-11T11:00:44;41.15;;;21.35;;
30173;SDS011;16985;50.814;8.530;2022-12-11T11:03:21;43.97;;;21.05;;
30173;SDS011;16985;50.814;8.530;2022-12-11T11:06:02;45.58;;;22.05;;
30173;SDS011;16985;50.814;8.530;2022-12-11T11:08:38;44.30;;;21.40;;
30173;SDS011;16985;50.814;8.530;2022-12-11T11:14:13;43.95;;;19.73;;
30173;SDS011;16985;50.814;8.530;2022-12-11T11:16:48;48.92;;;21.75;;
30173;SDS011;16985;50.814;8.530;2022-12-11T11:19:35;44.85;;;20.05;;
30173;SDS011;16985;50.814;8.530;2022-12-11T11:22:06;44.83;;;21.13;;
30173;SDS011;16985;50.814;8.530;2022-12-11T11:24:39;41.45;;;20.58;;
30173;SDS011;16985;50.814;8.530;2022-12-11T11:27:33;42.42;;;19.27;;
30173;SDS011;16985;50.814;8.530;2022-12-11T11:30:06;39.60;;;18.17;;
30173;SDS011;16985;50.814;8.530;2022-12-11T11:32:46;42.65;;;20.45;;
30173;SDS011;16985;50.814;8.530;2022-12-11T11:35:15;43.70;;;18.90;;
30173;SDS011;16985;50.814;8.530;2022-12-11T11:37:45;45.40;;;20.08;;
30173;SDS011;16985;50.814;8.530;2022-12-11T11:40:27;46.95;;;19.40;;
30173;SDS011;16985;50.814;8.530;2022-12-11T11:43:25;42.20;;;20.15;;
30173;SDS011;16985;50.814;8.530;2022-12-11T11:46:03;48.55;;;20.55;;
30173;SDS011;16985;50.814;8.530;2022-12-11T11:51:14;49.40;;;20.15;;
30173;SDS011;16985;50.814;8.530;2022-12-11T11:53:50;43.53;;;18.75;;
30173;SDS011;16985;50.814;8.530;2022-12-11T12:01:44;47.25;;;21.33;;
30173;SDS011;16985;50.814;8.530;2022-12-11T12:04:10;39.33;;;18.33;;
30173;SDS011;16985;50.814;8.530;2022-12-11T12:18:18;42.47;;;17.88;;
30173;SDS011;16985;50.814;8.530;2022-12-11T12:21:18;38.40;;;18.05;;
30173;SDS011;16985;50.814;8.530;2022-12-11T12:27:15;49.03;;;19.58;;
30173;SDS011;16985;50.814;8.530;2022-12-11T12:29:57;40.65;;;18.55;;
30173;SDS011;16985;50.814;8.530;2022-12-11T12:38:10;41.10;;;17.77;;
30173;SDS011;16985;50.814;8.530;2022-12-11T12:41:05;43.40;;;18.42;;
30173;SDS011;16985;50.814;8.530;2022-12-11T12:43:55;43.40;;;19.00;;
30173;SDS011;16985;50.814;8.530;2022-12-11T12:54:55;39.22;;;16.85;;
30173;SDS011;16985;50.814;8.530;2022-12-11T13:03:18;43.03;;;17.27;;
30173;SDS011;16985;50.814;8.530;2022-12-11T13:06:04;45.67;;;18.33;;
30173;SDS011;16985;50.814;8.530;2022-12-11T13:11:10;46.10;;;19.20;;
30173;SDS011;16985;50.814;8.530;2022-12-11T13:13:43;44.28;;;18.20;;
30173;SDS011;16985;50.814;8.530;2022-12-11T13:18:40;39.45;;;17.27;;
30173;SDS011;16985;50.814;8.530;2022-12-11T13:21:26;35.70;;;16.35;;
30173;SDS011;16985;50.814;8.530;2022-12-11T13:26:46;38.57;;;17.07;;
30173;SDS011;16985;50.814;8.530;2022-12-11T13:34:38;38.75;;;17.13;;
30173;SDS011;16985;50.814;8.530;2022-12-11T13:39:57;39.08;;;16.98;;
30173;SDS011;16985;50.814;8.530;2022-12-11T13:42:33;39.45;;;16.83;;
30173;SDS011;16985;50.814;8.530;2022-12-11T13:45:18;38.63;;;16.50;;
30173;SDS011;16985;50.814;8.530;2022-12-11T13:47:48;42.33;;;17.13;;
30173;SDS011;16985;50.814;8.530;2022-12-11T13:50:16;39.92;;;15.65;;
30173;SDS011;16985;50.814;8.530;2022-12-11T13:52:57;36.28;;;16.10;;
30173;SDS011;16985;50.814;8.530;2022-12-11T13:55:30;38.13;;;16.55;;
30173;SDS011;16985;50.814;8.530;2022-12-11T13:57:58;35.45;;;16.58;;
30173;SDS011;16985;50.814;8.530;2022-12-11T14:00:28;41.95;;;15.70;;
30173;SDS011;16985;50.814;8.530;2022-12-11T14:02:57;37.53;;;15.35;;
30173;SDS011;16985;50.814;8.530;2022-12-11T14:05:29;41.80;;;17.35;;
30173;SDS011;16985;50.814;8.530;2022-12-11T14:07:55;34.88;;;15.52;;
30173;SDS011;16985;50.814;8.530;2022-12-11T14:10:28;43.40;;;15.73;;
30173;SDS011;16985;50.814;8.530;2022-12-11T14:15:31;32.35;;;15.68;;
30173;SDS011;16985;50.814;8.530;2022-12-11T14:18:00;38.15;;;15.40;;
30173;SDS011;16985;50.814;8.530;2022-12-11T14:20:27;36.85;;;16.40;;
30173;SDS011;16985;50.814;8.530;2022-12-11T14:23:37;34.65;;;15.40;;
30173;SDS011;16985;50.814;8.530;2022-12-11T14:28:29;39.83;;;16.90;;
30173;SDS011;16985;50.814;8.530;2022-12-11T14:31:02;42.78;;;17.60;;
30173;SDS011;16985;50.814;8.530;2022-12-11T14:33:31;36.95;;;16.10;;
30173;SDS011;16985;50.814;8.530;2022-12-11T14:36:00;39.45;;;15.48;;
30173;SDS011;16985;50.814;8.530;2022-12-11T14:38:30;40.03;;;17.77;;
30173;SDS011;16985;50.814;8.530;2022-12-11T14:41:02;36.90;;;15.90;;
30173;SDS011;16985;50.814;8.530;2022-12-11T14:43:53;38.88;;;16.10;;
30173;SDS011;16985;50.814;8.530;2022-12-11T14:46:45;41.53;;;16.33;;
30173;SDS011;16985;50.814;8.530;2022-12-11T14:49:25;43.10;;;15.98;;
30173;SDS011;16985;50.814;8.530;2022-12-11T14:52:20;40.95;;;17.23;;
30173;SDS011;16985;50.814;8.530;2022-12-11T14:54:55;36.15;;;17.15;;
30173;SDS011;16985;50.814;8.530;2022-12-11T14:57:47;37.42;;;15.63;;
30173;SDS011;16985;50.814;8.530;2022-12-11T15:00:23;36.30;;;15.05;;
30173;SDS011;16985;50.814;8.530;2022-12-11T15:03:01;35.20;;;15.32;;
30173;SDS011;16985;50.814;8.530;2022-12-11T15:05:31;33.97;;;15.10;;
30173;SDS011;16985;50.814;8.530;2022-12-11T15:08:00;37.72;;;16.58;;
30173;SDS011;16985;50.814;8.530;2022-12-11T15:11:21;41.15;;;15.82;;
30173;SDS011;16985;50.814;8.530;2022-12-11T15:14:02;37.95;;;16.58;;
30173;SDS011;16985;50.814;8.530;2022-12-11T15:16:31;36.63;;;15.47;;
30173;SDS011;16985;50.814;8.530;2022-12-11T15:18:58;34.08;;;14.98;;
30173;SDS011;16985;50.814;8.530;2022-12-11T15:21:32;40.37;;;17.10;;
30173;SDS011;16985;50.814;8.530;2022-12-11T15:24:03;39.28;;;16.02;;
30173;SDS011;16985;50.814;8.530;2022-12-11T15:29:04;39.72;;;16.60;;
30173;SDS011;16985;50.814;8.530;2022-12-11T15:32:02;43.67;;;18.13;;
30173;SDS011;16985;50.814;8.530;2022-12-11T15:34:55;38.97;;;16.35;;
30173;SDS011;16985;50.814;8.530;2022-12-11T15:39:57;39.47;;;17.58;;
30173;SDS011;16985;50.814;8.530;2022-12-11T15:42:33;34.72;;;16.17;;
30173;SDS011;16985;50.814;8.530;2022-12-11T15:45:07;41.80;;;16.95;;
30173;SDS011;16985;50.814;8.530;2022-12-11T15:47:43;43.95;;;19.00;;
30173;SDS011;16985;50.814;8.530;2022-12-11T15:50:13;34.60;;;16.88;;
30173;SDS011;16985;50.814;8.530;2022-12-11T15:52:42;37.60;;;15.13;;
30173;SDS011;16985;50.814;8.530;2022-12-11T15:55:10;41.33;;;17.10;;
30173;SDS011;16985;50.814;8.530;2022-12-11T15:57:37;42.75;;;17.55;;
30173;SDS011;16985;50.814;8.530;2022-12-11T16:00:23;47.45;;;20.55;;
30173;SDS011;16985;50.814;8.530;2022-12-11T16:02:52;42.05;;;18.38;;
30173;SDS011;16985;50.814;8.530;2022-12-11T16:05:19;48.63;;;20.27;;
30173;SDS011;16985;50.814;8.530;2022-12-11T16:07:46;41.88;;;18.40;;
30173;SDS011;16985;50.814;8.530;2022-12-11T16:10:14;39.92;;;17.23;;
30173;SDS011;16985;50.814;8.530;2022-12-11T16:12:42;33.38;;;15.57;;
30173;SDS011;16985;50.814;8.530;2022-12-11T16:15:09;35.33;;;16.80;;
30173;SDS011;16985;50.814;8.530;2022-12-11T16:17:36;45.10;;;16.20;;
30173;SDS011;16985;50.814;8.530;2022-12-11T16:20:03;32.83;;;14.73;;
30173;SDS011;16985;50.814;8.530;2022-12-11T16:22:30;39.05;;;16.75;;
30173;SDS011;16985;50.814;8.530;2022-12-11T16:24:57;42.53;;;17.55;;
30173;SDS011;16985;50.814;8.530;2022-12-11T16:29:49;34.38;;;16.00;;
30173;SDS011;16985;50.814;8.530;2022-12-11T16:32:15;41.40;;;17.05;;
30173;SDS011;16985;50.814;8.530;2022-12-11T16:34:41;32.97;;;15.35;;